createdAt,value
2018-03-27T00:00:18.968Z,86.18
2018-03-27T00:01:19.015Z,86.22
2018-03-27T00:02:19.033Z,86.89
2018-03-27T00:03:19.007Z,86.51
2018-03-27T00:04:19.016Z,86.98
2018-03-27T00:05:19.035Z,86.79
2018-03-27T00:06:19.048Z,87.93
2018-03-27T00:07:19.051Z,87.65
2018-03-27T00:08:19.089Z,88.02
2018-03-27T00:09:19.111Z,87.93
2018-03-27T00:10:19.096Z,88.02
2018-03-27T00:11:19.132Z,87.74
2018-03-27T00:12:19.113Z,87.74
2018-03-27T00:13:19.145Z,86.98
2018-03-27T00:14:19.148Z,88.02
2018-03-27T00:15:19.160Z,87.93
2018-03-27T00:16:19.186Z,88.21
2018-03-27T00:17:19.194Z,88.31
2018-03-27T00:18:19.187Z,89.12
2018-03-27T00:19:19.199Z,89.21
2018-03-27T00:20:19.217Z,89.44
2018-03-27T00:21:19.231Z,89.25
2018-03-27T00:22:19.257Z,88.49
2018-03-27T00:23:19.274Z,88.59
2018-03-27T00:24:19.271Z,89.25
2018-03-27T00:25:19.289Z,89.16
2018-03-27T00:26:19.292Z,88.87
2018-03-27T00:27:19.304Z,88.97
2018-03-27T00:28:19.362Z,88.97
2018-03-27T00:29:19.388Z,88.97
2018-03-27T00:30:19.335Z,88.49
2018-03-27T00:31:19.352Z,88.49
2018-03-27T00:32:19.392Z,88.87
2018-03-27T00:33:19.377Z,88.68
2018-03-27T00:34:19.396Z,88.40
2018-03-27T00:35:19.408Z,88.21
2018-03-27T00:36:19.422Z,87.84
2018-03-27T00:37:19.424Z,86.79
2018-03-27T00:38:19.470Z,86.70
2018-03-27T00:39:19.462Z,86.46
2018-03-27T00:40:19.464Z,86.08
2018-03-27T00:41:19.477Z,85.99
2018-03-27T00:42:19.526Z,85.80
2018-03-27T00:43:19.521Z,85.04
2018-03-27T00:44:19.510Z,85.04
2018-03-27T00:45:19.533Z,84.94
2018-03-27T00:46:19.594Z,84.75
2018-03-27T00:47:19.577Z,85.99
2018-03-27T00:48:19.574Z,84.94
2018-03-27T00:49:19.582Z,85.04
2018-03-27T00:50:19.647Z,84.94
2018-03-27T00:51:19.662Z,85.23
2018-03-27T00:52:19.625Z,85.32
2018-03-27T00:53:19.639Z,85.51
2018-03-27T00:54:19.655Z,85.61
2018-03-27T00:55:19.666Z,85.61
2018-03-27T00:56:19.685Z,85.51
2018-03-27T00:57:19.679Z,85.70
2018-03-27T00:58:19.715Z,85.80
2018-03-27T00:59:19.722Z,86.08
2018-03-27T01:00:19.755Z,85.70
2018-03-27T01:01:19.757Z,85.61
2018-03-27T01:02:19.754Z,84.85
2018-03-27T01:03:19.778Z,84.94
2018-03-27T01:04:19.778Z,85.32
2018-03-27T01:05:19.795Z,85.23
2018-03-27T01:06:19.802Z,85.32
2018-03-27T01:07:19.813Z,85.23
2018-03-27T01:08:19.874Z,84.94
2018-03-27T01:09:19.838Z,85.32
2018-03-27T01:10:19.851Z,85.70
2018-03-27T01:11:19.869Z,85.42
2018-03-27T01:12:19.875Z,85.61
2018-03-27T01:13:19.890Z,85.04
2018-03-27T01:14:19.910Z,85.42
2018-03-27T01:15:19.932Z,85.23
2018-03-27T01:16:19.931Z,85.23
2018-03-27T01:17:19.944Z,85.89
2018-03-27T01:18:19.955Z,86.83
2018-03-27T01:19:19.966Z,86.83
2018-03-27T01:20:19.983Z,87.02
2018-03-27T01:21:20.005Z,87.55
2018-03-27T01:22:20.036Z,88.07
2018-03-27T01:23:20.051Z,88.12
2018-03-27T01:24:20.036Z,88.21
2018-03-27T01:25:20.044Z,88.35
2018-03-27T01:26:20.068Z,87.98
2018-03-27T01:27:20.083Z,87.55
2018-03-27T01:28:20.082Z,88.12
2018-03-27T01:29:20.104Z,88.12
2018-03-27T01:30:20.107Z,88.68
2018-03-27T01:31:20.130Z,89.54
2018-03-27T01:32:20.141Z,89.82
2018-03-27T01:33:20.154Z,89.35
2018-03-27T01:34:20.179Z,89.06
2018-03-27T01:35:20.176Z,88.87
2018-03-27T01:36:20.195Z,89.25
2018-03-27T01:37:20.196Z,88.59
2018-03-27T01:38:20.217Z,87.78
2018-03-27T01:39:20.242Z,87.69
2018-03-27T01:40:20.242Z,87.12
2018-03-27T01:41:20.255Z,86.55
2018-03-27T01:42:20.275Z,86.36
2018-03-27T01:43:20.271Z,86.27
2018-03-27T01:44:20.293Z,85.89
2018-03-27T01:45:20.329Z,86.27
2018-03-27T01:46:20.356Z,87.02
2018-03-27T01:47:20.330Z,87.12
2018-03-27T01:48:20.379Z,87.65
2018-03-27T01:49:20.349Z,88.45
2018-03-27T01:50:20.381Z,88.35
2018-03-27T01:51:20.390Z,87.40
2018-03-27T01:52:20.405Z,87.50
2018-03-27T01:53:20.443Z,87.78
2018-03-27T01:54:20.436Z,87.50
2018-03-27T01:55:20.433Z,87.31
2018-03-27T01:56:20.470Z,86.83
2018-03-27T01:57:20.471Z,86.46
2018-03-27T01:58:20.488Z,86.27
2018-03-27T01:59:20.483Z,86.46
2018-03-27T02:00:20.509Z,86.27
2018-03-27T02:01:20.507Z,85.93
2018-03-27T02:02:20.518Z,85.93
2018-03-27T02:03:20.538Z,85.99
2018-03-27T02:04:20.557Z,85.99
2018-03-27T02:05:20.566Z,86.08
2018-03-27T02:06:20.579Z,86.83
2018-03-27T02:07:20.592Z,87.21
2018-03-27T02:08:20.606Z,87.59
2018-03-27T02:09:20.636Z,87.88
2018-03-27T02:10:20.652Z,87.88
2018-03-27T02:11:20.649Z,88.17
2018-03-27T02:12:20.668Z,87.88
2018-03-27T02:13:20.696Z,88.54
2018-03-27T02:14:20.681Z,88.87
2018-03-27T02:15:20.690Z,89.16
2018-03-27T02:16:20.715Z,89.35
2018-03-27T02:17:20.719Z,89.68
2018-03-27T02:18:20.734Z,89.01
2018-03-27T02:19:20.755Z,89.01
2018-03-27T02:20:20.769Z,89.01
2018-03-27T02:21:20.782Z,88.26
2018-03-27T02:22:20.785Z,87.98
2018-03-27T02:23:20.794Z,88.07
2018-03-27T02:24:20.847Z,88.07
2018-03-27T02:25:20.831Z,88.35
2018-03-27T02:26:20.843Z,87.59
2018-03-27T02:27:20.857Z,87.78
2018-03-27T02:28:20.934Z,88.07
2018-03-27T02:29:20.870Z,87.88
2018-03-27T02:30:20.891Z,87.98
2018-03-27T02:31:20.898Z,87.31
2018-03-27T02:32:20.915Z,87.31
2018-03-27T02:33:20.930Z,86.74
2018-03-27T02:34:20.938Z,86.74
2018-03-27T02:35:20.959Z,86.65
2018-03-27T02:36:20.976Z,86.27
2018-03-27T02:37:20.985Z,86.36
2018-03-27T02:38:20.992Z,86.36
2018-03-27T02:39:21.031Z,86.08
2018-03-27T02:40:21.023Z,85.84
2018-03-27T02:41:21.026Z,85.42
2018-03-27T02:42:21.053Z,85.80
2018-03-27T02:43:21.054Z,86.08
2018-03-27T02:44:21.106Z,86.46
2018-03-27T02:45:21.082Z,86.27
2018-03-27T02:46:21.112Z,86.08
2018-03-27T02:47:21.123Z,86.74
2018-03-27T02:48:21.182Z,87.40
2018-03-27T02:49:21.139Z,88.35
2018-03-27T02:50:21.164Z,88.07
2018-03-27T02:51:21.185Z,88.07
2018-03-27T02:52:21.172Z,88.26
2018-03-27T02:53:21.181Z,88.45
2018-03-27T02:54:21.213Z,87.78
2018-03-27T02:55:21.203Z,87.40
2018-03-27T02:56:21.220Z,86.74
2018-03-27T02:57:21.240Z,86.93
2018-03-27T02:58:21.279Z,86.93
2018-03-27T02:59:21.262Z,87.02
2018-03-27T03:00:21.285Z,87.59
2018-03-27T03:01:21.288Z,87.78
2018-03-27T03:02:21.317Z,87.59
2018-03-27T03:03:21.327Z,87.02
2018-03-27T03:04:21.327Z,87.02
2018-03-27T03:05:21.349Z,87.59
2018-03-27T03:06:21.362Z,87.31
2018-03-27T03:07:21.366Z,87.50
2018-03-27T03:08:21.382Z,88.07
2018-03-27T03:09:21.398Z,88.73
2018-03-27T03:10:21.407Z,88.64
2018-03-27T03:11:21.412Z,88.26
2018-03-27T03:12:21.460Z,88.35
2018-03-27T03:13:21.465Z,87.69
2018-03-27T03:14:21.463Z,87.69
2018-03-27T03:15:21.484Z,87.40
2018-03-27T03:16:21.486Z,86.74
2018-03-27T03:17:21.531Z,87.02
2018-03-27T03:18:21.534Z,87.21
2018-03-27T03:19:21.553Z,87.40
2018-03-27T03:20:21.554Z,87.50
2018-03-27T03:21:21.560Z,87.21
2018-03-27T03:22:21.599Z,86.93
2018-03-27T03:23:21.596Z,86.93
2018-03-27T03:24:21.612Z,87.78
2018-03-27T03:25:21.606Z,87.98
2018-03-27T03:26:21.627Z,87.78
2018-03-27T03:27:21.639Z,87.69
2018-03-27T03:28:21.698Z,87.02
2018-03-27T03:29:21.653Z,86.83
2018-03-27T03:30:21.698Z,87.31
2018-03-27T03:31:21.702Z,87.31
2018-03-27T03:32:21.702Z,87.78
2018-03-27T03:33:21.705Z,87.98
2018-03-27T03:34:21.737Z,87.59
2018-03-27T03:35:21.733Z,87.50
2018-03-27T03:36:21.741Z,86.93
2018-03-27T03:37:21.794Z,86.55
2018-03-27T03:38:21.774Z,86.83
2018-03-27T03:39:21.786Z,86.93
2018-03-27T03:40:21.793Z,86.65
2018-03-27T03:41:21.811Z,86.74
2018-03-27T03:42:21.845Z,86.36
2018-03-27T03:43:21.856Z,87.02
2018-03-27T03:44:21.869Z,86.83
2018-03-27T03:45:21.885Z,87.31
2018-03-27T03:46:21.871Z,87.59
2018-03-27T03:47:21.904Z,87.59
2018-03-27T03:48:21.895Z,87.88
2018-03-27T03:49:21.926Z,88.17
2018-03-27T03:50:21.982Z,88.07
2018-03-27T03:51:21.932Z,87.98
2018-03-27T03:52:21.956Z,87.98
2018-03-27T03:53:21.959Z,88.68
2018-03-27T03:54:21.971Z,89.82
2018-03-27T03:55:21.987Z,89.63
2018-03-27T03:56:22.010Z,89.49
2018-03-27T03:57:22.036Z,88.92
2018-03-27T03:58:22.023Z,88.82
2018-03-27T03:59:22.069Z,88.17
2018-03-27T04:00:22.063Z,87.78
2018-03-27T04:01:22.102Z,87.98
2018-03-27T04:02:22.111Z,87.88
2018-03-27T04:03:22.137Z,87.31
2018-03-27T04:04:22.110Z,87.12
2018-03-27T04:05:22.117Z,86.83
2018-03-27T04:06:22.134Z,86.74
2018-03-27T04:07:22.190Z,87.02
2018-03-27T04:08:22.160Z,86.65
2018-03-27T04:09:22.193Z,86.55
2018-03-27T04:10:22.199Z,87.12
2018-03-27T04:11:22.291Z,87.88
2018-03-27T04:12:22.266Z,87.88
2018-03-27T04:13:22.249Z,87.88
2018-03-27T04:14:22.231Z,87.88
2018-03-27T04:15:22.255Z,88.31
2018-03-27T04:16:22.258Z,89.06
2018-03-27T04:17:22.315Z,89.20
2018-03-27T04:18:22.328Z,88.87
2018-03-27T04:19:22.293Z,88.97
2018-03-27T04:20:22.333Z,88.87
2018-03-27T04:21:22.355Z,88.78
2018-03-27T04:22:22.342Z,89.35
2018-03-27T04:23:22.356Z,89.63
2018-03-27T04:24:22.365Z,89.44
2018-03-27T04:25:22.388Z,90.01
2018-03-27T04:26:22.394Z,89.25
2018-03-27T04:27:22.413Z,89.82
2018-03-27T04:28:22.408Z,89.44
2018-03-27T04:29:22.542Z,90.01
2018-03-27T04:30:22.464Z,90.67
2018-03-27T04:31:22.476Z,90.86
2018-03-27T04:32:22.468Z,91.15
2018-03-27T04:33:22.492Z,91.62
2018-03-27T04:34:22.510Z,91.34
2018-03-27T04:35:22.594Z,90.86
2018-03-27T04:36:22.517Z,90.48
2018-03-27T04:37:22.524Z,89.92
2018-03-27T04:38:22.555Z,89.63
2018-03-27T04:39:22.564Z,89.63
2018-03-27T04:40:22.573Z,89.35
2018-03-27T04:41:22.582Z,89.54
2018-03-27T04:42:22.592Z,89.92
2018-03-27T04:43:22.620Z,89.63
2018-03-27T04:44:22.643Z,88.97
2018-03-27T04:45:22.642Z,88.73
2018-03-27T04:46:22.658Z,88.54
2018-03-27T04:47:22.667Z,88.73
2018-03-27T04:48:22.662Z,88.54
2018-03-27T04:49:22.686Z,87.98
2018-03-27T04:50:22.693Z,88.82
2018-03-27T04:51:22.702Z,87.98
2018-03-27T04:52:22.715Z,88.54
2018-03-27T04:53:22.734Z,88.17
2018-03-27T04:54:22.739Z,88.35
2018-03-27T04:55:22.770Z,88.35
2018-03-27T04:56:22.785Z,88.07
2018-03-27T04:57:22.818Z,88.21
2018-03-27T04:58:22.811Z,89.54
2018-03-27T04:59:22.812Z,89.92
2018-03-27T05:00:22.814Z,89.82
2018-03-27T05:01:22.829Z,89.54
2018-03-27T05:02:22.865Z,89.73
2018-03-27T05:03:22.861Z,90.01
2018-03-27T05:04:22.898Z,90.86
2018-03-27T05:05:22.887Z,91.15
2018-03-27T05:06:22.896Z,91.15
2018-03-27T05:07:22.906Z,91.62
2018-03-27T05:08:22.977Z,92.38
2018-03-27T05:09:22.936Z,91.91
2018-03-27T05:10:22.951Z,90.96
2018-03-27T05:11:22.981Z,89.44
2018-03-27T05:12:23.043Z,89.11
2018-03-27T05:13:23.048Z,88.54
2018-03-27T05:14:22.996Z,88.07
2018-03-27T05:15:23.017Z,88.35
2018-03-27T05:16:23.020Z,87.88
2018-03-27T05:17:23.034Z,87.59
2018-03-27T05:18:23.040Z,87.69
2018-03-27T05:19:23.069Z,87.50
2018-03-27T05:20:23.062Z,87.98
2018-03-27T05:21:23.081Z,88.07
2018-03-27T05:22:23.117Z,87.59
2018-03-27T05:23:23.127Z,87.69
2018-03-27T05:24:23.123Z,87.88
2018-03-27T05:25:23.128Z,88.17
2018-03-27T05:26:23.141Z,88.54
2018-03-27T05:27:23.191Z,89.68
2018-03-27T05:28:23.215Z,89.96
2018-03-27T05:29:23.192Z,89.54
2018-03-27T05:30:23.194Z,89.92
2018-03-27T05:31:23.206Z,90.86
2018-03-27T05:32:23.220Z,90.77
2018-03-27T05:33:23.251Z,90.96
2018-03-27T05:34:23.288Z,90.77
2018-03-27T05:35:23.269Z,90.30
2018-03-27T05:36:23.285Z,90.53
2018-03-27T05:37:23.300Z,90.25
2018-03-27T05:38:23.292Z,89.68
2018-03-27T05:39:23.312Z,88.64
2018-03-27T05:40:23.385Z,88.35
2018-03-27T05:41:23.338Z,88.54
2018-03-27T05:42:23.396Z,88.17
2018-03-27T05:43:23.397Z,88.82
2018-03-27T05:44:23.378Z,88.45
2018-03-27T05:45:23.402Z,88.54
2018-03-27T05:46:23.425Z,88.45
2018-03-27T05:47:23.416Z,87.88
2018-03-27T05:48:23.437Z,87.73
2018-03-27T05:49:23.442Z,87.88
2018-03-27T05:50:23.474Z,87.98
2018-03-27T05:51:23.467Z,87.59
2018-03-27T05:52:23.484Z,88.17
2018-03-27T05:53:23.525Z,88.54
2018-03-27T05:54:23.505Z,88.54
2018-03-27T05:55:23.558Z,88.45
2018-03-27T05:56:23.539Z,88.64
2018-03-27T05:57:23.575Z,88.17
2018-03-27T05:58:23.574Z,87.88
2018-03-27T05:59:23.584Z,88.07
2018-03-27T06:00:23.595Z,87.07
2018-03-27T06:01:23.594Z,87.16
2018-03-27T06:02:23.612Z,86.65
2018-03-27T06:03:23.635Z,87.78
2018-03-27T06:04:23.644Z,88.45
2018-03-27T06:05:23.662Z,88.07
2018-03-27T06:06:23.660Z,87.88
2018-03-27T06:07:23.690Z,88.17
2018-03-27T06:08:23.689Z,88.73
2018-03-27T06:09:23.707Z,89.11
2018-03-27T06:10:23.722Z,88.64
2018-03-27T06:11:23.749Z,88.35
2018-03-27T06:12:23.773Z,88.07
2018-03-27T06:13:23.762Z,88.35
2018-03-27T06:14:23.768Z,88.17
2018-03-27T06:15:23.784Z,87.92
2018-03-27T06:16:23.799Z,87.35
2018-03-27T06:17:23.818Z,86.69
2018-03-27T06:18:23.873Z,86.69
2018-03-27T06:19:23.849Z,87.78
2018-03-27T06:20:23.853Z,88.07
2018-03-27T06:21:23.865Z,88.73
2018-03-27T06:22:23.893Z,88.45
2018-03-27T06:23:23.884Z,88.45
2018-03-27T06:24:23.897Z,87.83
2018-03-27T06:25:23.939Z,87.92
2018-03-27T06:26:23.932Z,88.30
2018-03-27T06:27:23.943Z,87.83
2018-03-27T06:28:23.992Z,87.64
2018-03-27T06:29:23.977Z,88.02
2018-03-27T06:30:24.023Z,88.11
2018-03-27T06:31:23.994Z,88.21
2018-03-27T06:32:24.020Z,88.11
2018-03-27T06:33:24.024Z,88.02
2018-03-27T06:34:24.036Z,88.11
2018-03-27T06:35:24.060Z,87.92
2018-03-27T06:36:24.062Z,87.73
2018-03-27T06:37:24.087Z,87.12
2018-03-27T06:38:24.086Z,86.26
2018-03-27T06:39:24.109Z,85.69
2018-03-27T06:40:24.122Z,85.31
2018-03-27T06:41:24.124Z,85.22
2018-03-27T06:42:24.174Z,85.84
2018-03-27T06:43:24.187Z,86.03
2018-03-27T06:44:24.168Z,86.50
2018-03-27T06:45:24.218Z,86.26
2018-03-27T06:46:24.221Z,85.78
2018-03-27T06:47:24.226Z,85.97
2018-03-27T06:48:24.240Z,85.60
2018-03-27T06:49:24.240Z,86.35
2018-03-27T06:50:24.253Z,85.84
2018-03-27T06:51:24.261Z,86.22
2018-03-27T06:52:24.319Z,87.26
2018-03-27T06:53:24.292Z,87.92
2018-03-27T06:54:24.316Z,87.64
2018-03-27T06:55:24.325Z,87.83
2018-03-27T06:56:24.335Z,87.45
2018-03-27T06:57:24.345Z,87.35
2018-03-27T06:58:24.367Z,87.26
2018-03-27T06:59:24.380Z,86.74
2018-03-27T07:00:24.397Z,86.83
2018-03-27T07:01:24.413Z,86.35
2018-03-27T07:02:24.450Z,85.22
2018-03-27T07:03:24.445Z,84.74
2018-03-27T07:04:24.453Z,84.22
2018-03-27T07:05:24.549Z,84.31
2018-03-27T07:06:24.470Z,83.84
2018-03-27T07:07:24.503Z,83.27
2018-03-27T07:08:24.525Z,83.55
2018-03-27T07:09:24.540Z,83.17
2018-03-27T07:10:24.542Z,82.70
2018-03-27T07:11:24.557Z,82.13
2018-03-27T07:12:24.610Z,81.75
2018-03-27T07:13:24.591Z,81.41
2018-03-27T07:14:24.602Z,81.75
2018-03-27T07:15:24.624Z,81.98
2018-03-27T07:16:24.616Z,81.56
2018-03-27T07:17:24.638Z,81.13
2018-03-27T07:18:24.658Z,81.56
2018-03-27T07:19:24.664Z,81.37
2018-03-27T07:20:24.677Z,82.70
2018-03-27T07:21:24.694Z,82.79
2018-03-27T07:22:24.717Z,84.12
2018-03-27T07:23:24.715Z,83.84
2018-03-27T07:24:24.765Z,82.79
2018-03-27T07:25:24.739Z,82.60
2018-03-27T07:26:24.780Z,82.65
2018-03-27T07:27:24.788Z,81.70
2018-03-27T07:28:24.822Z,81.41
2018-03-27T07:29:24.806Z,80.56
2018-03-27T07:30:24.828Z,80.84
2018-03-27T07:31:24.835Z,81.79
2018-03-27T07:32:24.863Z,82.27
2018-03-27T07:33:24.889Z,82.08
2018-03-27T07:34:24.874Z,82.51
2018-03-27T07:35:24.888Z,81.98
2018-03-27T07:36:24.921Z,82.08
2018-03-27T07:37:24.929Z,81.51
2018-03-27T07:38:24.944Z,81.13
2018-03-27T07:39:24.956Z,80.84
2018-03-27T07:40:24.962Z,80.65
2018-03-27T07:41:25.008Z,81.04
2018-03-27T07:42:24.986Z,81.70
2018-03-27T07:43:25.013Z,82.74
2018-03-27T07:44:25.057Z,82.55
2018-03-27T07:45:25.049Z,82.55
2018-03-27T07:46:25.068Z,82.17
2018-03-27T07:47:25.151Z,81.60
2018-03-27T07:48:25.083Z,81.32
2018-03-27T07:49:25.097Z,81.41
2018-03-27T07:50:25.118Z,81.13
2018-03-27T07:51:25.126Z,80.75
2018-03-27T07:52:25.141Z,81.13
2018-03-27T07:53:25.247Z,81.23
2018-03-27T07:54:25.172Z,81.51
2018-03-27T07:55:25.194Z,80.79
2018-03-27T07:56:25.199Z,80.75
2018-03-27T07:57:25.213Z,81.13
2018-03-27T07:58:25.217Z,81.60
2018-03-27T07:59:25.246Z,81.65
2018-03-27T08:00:25.254Z,80.98
2018-03-27T08:01:25.273Z,80.60
2018-03-27T08:02:25.283Z,80.03
2018-03-27T08:03:25.297Z,80.03
2018-03-27T08:04:25.332Z,79.94
2018-03-27T08:05:25.342Z,79.27
2018-03-27T08:06:25.347Z,79.84
2018-03-27T08:07:25.358Z,78.93
2018-03-27T08:08:25.376Z,78.27
2018-03-27T08:09:25.394Z,78.74
2018-03-27T08:10:25.401Z,79.12
2018-03-27T08:11:25.416Z,78.74
2018-03-27T08:12:25.453Z,77.41
2018-03-27T08:13:25.443Z,76.97
2018-03-27T08:14:25.471Z,76.59
2018-03-27T08:15:25.475Z,75.45
2018-03-27T08:16:25.500Z,75.30
2018-03-27T08:17:25.521Z,74.58
2018-03-27T08:18:25.522Z,72.90
2018-03-27T08:19:25.569Z,71.03
2018-03-27T08:20:25.613Z,69.83
2018-03-27T08:21:25.575Z,67.77
2018-03-27T08:22:25.598Z,66.78
2018-03-27T08:23:25.630Z,66.88
2018-03-27T08:24:25.641Z,66.66
2018-03-27T08:25:25.653Z,67.03
2018-03-27T08:26:25.651Z,68.84
2018-03-27T08:27:25.673Z,68.50
2018-03-27T08:28:25.693Z,67.48
2018-03-27T08:29:25.794Z,65.70
2018-03-27T08:30:25.771Z,64.59
2018-03-27T08:31:25.742Z,66.91
2018-03-27T08:32:25.764Z,64.65
2018-03-27T08:33:25.785Z,62.68
2018-03-27T08:34:25.800Z,62.40
2018-03-27T08:35:25.818Z,62.02
2018-03-27T08:36:25.955Z,61.76
2018-03-27T08:37:25.867Z,61.19
2018-03-27T08:38:25.870Z,60.46
2018-03-27T08:39:25.890Z,59.69
2018-03-27T08:40:25.966Z,59.92
2018-03-27T08:41:25.926Z,63.10
2018-03-27T08:42:25.966Z,65.10
2018-03-27T08:43:26.000Z,67.07
2018-03-27T08:44:25.985Z,68.24
2018-03-27T08:45:25.994Z,66.82
2018-03-27T08:46:26.020Z,66.38
2018-03-27T08:47:26.030Z,65.04
2018-03-27T08:48:26.049Z,64.97
2018-03-27T08:49:26.081Z,63.45
2018-03-27T08:50:26.099Z,63.70
2018-03-27T08:51:26.105Z,65.04
2018-03-27T08:52:26.135Z,66.78
2018-03-27T08:53:26.142Z,68.75
2018-03-27T08:54:26.183Z,70.08
2018-03-27T08:55:26.178Z,71.03
2018-03-27T08:56:26.201Z,70.08
2018-03-27T08:57:26.219Z,69.96
2018-03-27T08:58:26.263Z,68.12
2018-03-27T08:59:26.269Z,68.69
2018-03-27T09:00:26.322Z,70.08
2018-03-27T09:01:26.340Z,70.27
2018-03-27T09:02:26.296Z,69.95
2018-03-27T09:03:26.331Z,71.53
2018-03-27T09:04:26.363Z,71.86
2018-03-27T09:05:26.377Z,69.99
2018-03-27T09:06:26.394Z,69.42
2018-03-27T09:07:26.410Z,68.18
2018-03-27T09:08:26.427Z,67.64
2018-03-27T09:09:26.439Z,67.26
2018-03-27T09:10:26.461Z,66.75
2018-03-27T09:11:26.464Z,67.26
2018-03-27T09:12:26.494Z,67.99
2018-03-27T09:13:26.585Z,69.17
2018-03-27T09:14:26.513Z,68.98
2018-03-27T09:15:26.541Z,67.83
2018-03-27T09:16:26.555Z,68.08
2018-03-27T09:17:26.579Z,69.04
2018-03-27T09:18:26.585Z,70.47
2018-03-27T09:19:26.603Z,70.65
2018-03-27T09:20:26.624Z,70.05
2018-03-27T09:21:26.649Z,71.95
2018-03-27T09:22:26.666Z,72.65
2018-03-27T09:23:26.687Z,70.78
2018-03-27T09:24:26.701Z,68.59
2018-03-27T09:25:26.711Z,67.48
2018-03-27T09:26:26.754Z,66.47
2018-03-27T09:27:26.743Z,65.70
2018-03-27T09:28:26.752Z,64.94
2018-03-27T09:29:26.772Z,63.51
2018-03-27T09:30:26.811Z,63.51
2018-03-27T09:31:26.820Z,63.57
2018-03-27T09:32:26.826Z,64.72
2018-03-27T09:33:26.873Z,65.92
2018-03-27T09:34:26.873Z,67.07
2018-03-27T09:35:26.903Z,67.07
2018-03-27T09:36:26.900Z,66.78
2018-03-27T09:37:26.936Z,66.50
2018-03-27T09:38:26.940Z,66.15
2018-03-27T09:39:26.967Z,64.28
2018-03-27T09:40:26.991Z,62.68
2018-03-27T09:41:26.995Z,62.30
2018-03-27T09:42:27.036Z,62.37
2018-03-27T09:43:27.029Z,61.99
2018-03-27T09:44:27.041Z,62.27
2018-03-27T09:45:27.064Z,62.08
2018-03-27T09:46:27.110Z,61.70
2018-03-27T09:47:27.121Z,61.44
2018-03-27T09:48:27.110Z,60.42
2018-03-27T09:49:27.144Z,59.38
2018-03-27T09:50:27.163Z,59.25
2018-03-27T09:51:27.179Z,61.99
2018-03-27T09:52:27.227Z,63.29
2018-03-27T09:53:27.204Z,64.97
2018-03-27T09:54:27.287Z,65.73
2018-03-27T09:55:27.254Z,65.96
2018-03-27T09:56:27.283Z,66.78
2018-03-27T09:57:27.298Z,66.63
2018-03-27T09:58:27.384Z,66.40
2018-03-27T09:59:27.454Z,67.26
2018-03-27T10:00:27.337Z,66.59
2018-03-27T10:01:27.382Z,65.10
2018-03-27T10:02:27.374Z,65.58
2018-03-27T10:03:27.397Z,66.31
2018-03-27T10:04:27.403Z,67.29
2018-03-27T10:05:27.434Z,65.80
2018-03-27T10:06:27.443Z,63.80
2018-03-27T10:07:27.467Z,63.51
2018-03-27T10:08:27.471Z,63.20
2018-03-27T10:09:27.493Z,63.51
2018-03-27T10:10:27.519Z,62.18
2018-03-27T10:11:27.539Z,61.60
2018-03-27T10:12:27.559Z,60.65
2018-03-27T10:13:27.574Z,60.75
2018-03-27T10:14:27.593Z,59.70
2018-03-27T10:15:27.607Z,59.41
2018-03-27T10:16:27.631Z,59.34
2018-03-27T10:17:27.631Z,60.27
2018-03-27T10:18:27.686Z,61.04
2018-03-27T10:19:27.691Z,59.89
2018-03-27T10:20:27.714Z,59.60
2018-03-27T10:21:27.718Z,60.17
2018-03-27T10:22:27.738Z,62.62
2018-03-27T10:23:27.752Z,63.76
2018-03-27T10:24:27.770Z,63.13
2018-03-27T10:25:27.778Z,62.08
2018-03-27T10:26:27.794Z,62.18
2018-03-27T10:27:27.828Z,62.65
2018-03-27T10:28:27.895Z,62.30
2018-03-27T10:29:27.849Z,61.04
2018-03-27T10:30:27.881Z,61.96
2018-03-27T10:31:27.889Z,62.43
2018-03-27T10:32:27.911Z,62.34
2018-03-27T10:33:27.918Z,61.76
2018-03-27T10:34:27.941Z,60.75
2018-03-27T10:35:28.060Z,59.70
2018-03-27T10:36:27.974Z,59.73
2018-03-27T10:37:28.003Z,58.68
2018-03-27T10:38:28.059Z,57.34
2018-03-27T10:39:28.025Z,56.96
2018-03-27T10:40:28.060Z,56.58
2018-03-27T10:41:28.063Z,56.60
2018-03-27T10:42:28.126Z,56.77
2018-03-27T10:43:28.097Z,56.67
2018-03-27T10:44:28.123Z,57.28
2018-03-27T10:45:28.156Z,57.56
2018-03-27T10:46:28.162Z,56.96
2018-03-27T10:47:28.212Z,56.41
2018-03-27T10:48:28.223Z,56.23
2018-03-27T10:49:28.229Z,55.68
2018-03-27T10:50:28.278Z,55.01
2018-03-27T10:51:28.247Z,55.49
2018-03-27T10:52:28.262Z,55.20
2018-03-27T10:53:28.550Z,55.27
2018-03-27T10:54:28.302Z,56.16
2018-03-27T10:55:28.373Z,55.30
2018-03-27T10:56:28.365Z,54.63
2018-03-27T10:57:28.367Z,54.75
2018-03-27T10:58:28.390Z,54.47
2018-03-27T10:59:28.401Z,55.04
2018-03-27T11:00:28.463Z,54.63
2018-03-27T11:01:28.430Z,55.01
2018-03-27T11:02:28.459Z,55.11
2018-03-27T11:03:28.477Z,55.87
2018-03-27T11:04:28.494Z,55.77
2018-03-27T11:05:28.550Z,55.36
2018-03-27T11:06:28.528Z,54.32
2018-03-27T11:07:28.544Z,54.99
2018-03-27T11:08:28.619Z,55.34
2018-03-27T11:09:28.590Z,56.04
2018-03-27T11:10:28.599Z,56.13
2018-03-27T11:11:28.654Z,56.16
2018-03-27T11:12:28.629Z,56.45
2018-03-27T11:13:28.653Z,56.06
2018-03-27T11:14:28.688Z,55.58
2018-03-27T11:15:28.721Z,55.11
2018-03-27T11:16:28.706Z,54.50
2018-03-27T11:17:28.766Z,54.89
2018-03-27T11:18:28.767Z,55.55
2018-03-27T11:19:28.758Z,55.84
2018-03-27T11:20:28.790Z,56.10
2018-03-27T11:21:28.821Z,55.84
2018-03-27T11:22:28.838Z,56.23
2018-03-27T11:23:28.899Z,56.89
2018-03-27T11:24:28.851Z,56.13
2018-03-27T11:25:28.886Z,54.89
2018-03-27T11:26:28.900Z,54.50
2018-03-27T11:27:28.901Z,54.32
2018-03-27T11:28:28.985Z,54.41
2018-03-27T11:29:28.984Z,54.67
2018-03-27T11:30:28.973Z,54.50
2018-03-27T11:31:28.989Z,54.41
2018-03-27T11:32:29.004Z,54.32
2018-03-27T11:33:29.025Z,55.36
2018-03-27T11:34:29.033Z,54.13
2018-03-27T11:35:29.076Z,54.32
2018-03-27T11:36:29.072Z,53.36
2018-03-27T11:37:29.110Z,54.10
2018-03-27T11:38:29.118Z,55.82
2018-03-27T11:39:29.136Z,56.29
2018-03-27T11:40:29.149Z,56.62
2018-03-27T11:41:29.204Z,58.11
2018-03-27T11:42:29.189Z,59.09
2018-03-27T11:43:29.194Z,59.41
2018-03-27T11:44:29.219Z,59.57
2018-03-27T11:45:29.247Z,59.41
2018-03-27T11:46:29.271Z,58.36
2018-03-27T11:47:29.281Z,57.79
2018-03-27T11:48:29.293Z,57.43
2018-03-27T11:49:29.329Z,56.26
2018-03-27T11:50:29.343Z,56.07
2018-03-27T11:51:29.405Z,56.93
2018-03-27T11:52:29.364Z,56.93
2018-03-27T11:53:29.409Z,57.00
2018-03-27T11:54:29.392Z,57.12
2018-03-27T11:55:29.413Z,56.74
2018-03-27T11:56:29.435Z,55.50
2018-03-27T11:57:29.471Z,55.76
2018-03-27T11:58:29.463Z,56.81
2018-03-27T11:59:29.488Z,55.98
2018-03-27T12:00:29.506Z,55.12
2018-03-27T12:01:29.534Z,55.98
2018-03-27T12:02:29.536Z,56.46
2018-03-27T12:03:29.562Z,57.48
2018-03-27T12:04:29.571Z,58.33
2018-03-27T12:05:29.590Z,57.19
2018-03-27T12:06:29.605Z,57.28
2018-03-27T12:07:29.656Z,57.38
2018-03-27T12:08:29.649Z,56.62
2018-03-27T12:09:29.674Z,57.48
2018-03-27T12:10:29.700Z,57.19
2018-03-27T12:11:29.695Z,56.46
2018-03-27T12:12:29.739Z,56.10
2018-03-27T12:13:29.743Z,55.82
2018-03-27T12:14:29.774Z,55.21
2018-03-27T12:15:29.764Z,55.60
2018-03-27T12:16:29.778Z,55.43
2018-03-27T12:17:29.799Z,55.34
2018-03-27T12:18:29.841Z,56.38
2018-03-27T12:19:29.920Z,55.62
2018-03-27T12:20:29.870Z,55.15
2018-03-27T12:21:29.910Z,54.55
2018-03-27T12:22:29.898Z,55.41
2018-03-27T12:23:29.931Z,56.07
2018-03-27T12:24:29.962Z,56.07
2018-03-27T12:25:29.951Z,55.91
2018-03-27T12:26:29.984Z,56.01
2018-03-27T12:27:29.985Z,55.82
2018-03-27T12:28:29.996Z,54.96
2018-03-27T12:29:30.066Z,53.81
2018-03-27T12:30:30.102Z,51.68
2018-03-27T12:31:30.081Z,51.23
2018-03-27T12:32:30.073Z,49.90
2018-03-27T12:33:30.138Z,49.90
2018-03-27T12:34:30.111Z,51.33
2018-03-27T12:35:30.122Z,51.64
2018-03-27T12:36:30.173Z,52.40
2018-03-27T12:37:30.175Z,50.57
2018-03-27T12:38:30.179Z,52.00
2018-03-27T12:39:30.213Z,52.48
2018-03-27T12:40:30.213Z,51.45
2018-03-27T12:41:30.235Z,49.99
2018-03-27T12:42:30.250Z,49.35
2018-03-27T12:43:30.328Z,48.68
2018-03-27T12:44:30.314Z,49.71
2018-03-27T12:45:30.468Z,49.33
2018-03-27T12:46:30.319Z,48.66
2018-03-27T12:47:30.380Z,49.40
2018-03-27T12:48:30.360Z,50.16
2018-03-27T12:49:30.447Z,50.95
2018-03-27T12:50:30.395Z,50.31
2018-03-27T12:51:30.424Z,49.62
2018-03-27T12:52:30.430Z,47.42